createdAt,value
2022-10-11T00:00:42.456Z,3.83
2022-10-11T00:03:09.623Z,2.70
2022-10-11T00:05:36.616Z,2.80
2022-10-11T00:08:05.646Z,3.03
2022-10-11T00:10:33.678Z,3.63
2022-10-11T00:13:00.732Z,3.13
2022-10-11T00:15:27.606Z,3.35
2022-10-11T00:17:54.462Z,3.35
2022-10-11T00:20:21.357Z,3.45
2022-10-11T00:22:49.391Z,3.42
2022-10-11T00:25:17.907Z,2.95
2022-10-11T00:27:44.850Z,3.75
2022-10-11T00:30:12.319Z,2.70
2022-10-11T00:32:39.817Z,3.58
2022-10-11T00:35:07.821Z,3.25
2022-10-11T00:37:36.837Z,3.78
2022-10-11T00:40:08.776Z,4.10
2022-10-11T00:42:35.738Z,4.20
2022-10-11T00:45:27.326Z,4.25
2022-10-11T00:48:02.609Z,4.57
2022-10-11T00:50:33.623Z,4.57
2022-10-11T00:53:08.030Z,3.88
2022-10-11T00:55:40.345Z,3.85
2022-10-11T00:58:07.948Z,4.28
2022-10-11T01:00:35.041Z,4.95
2022-10-11T01:03:03.704Z,4.70
2022-10-11T01:05:31.452Z,4.20
2022-10-11T01:08:00.595Z,3.70
2022-10-11T01:10:28.933Z,4.93
2022-10-11T01:13:12.077Z,4.60
2022-10-11T01:15:51.937Z,3.47
2022-10-11T01:18:21.565Z,4.07
2022-10-11T01:20:55.432Z,4.28
2022-10-11T01:23:30.888Z,4.10
2022-10-11T01:26:16.872Z,4.28
2022-10-11T01:29:12.507Z,4.47
2022-10-11T01:31:49.407Z,3.25
2022-10-11T01:34:32.816Z,3.65
2022-10-11T01:37:05.109Z,3.28
2022-10-11T01:39:45.754Z,3.70
2022-10-11T01:42:13.654Z,3.10
2022-10-11T01:44:44.850Z,3.38
2022-10-11T01:47:11.660Z,4.00
2022-10-11T01:49:38.568Z,3.45
2022-10-11T01:52:07.234Z,4.30
2022-10-11T01:55:13.315Z,3.20
2022-10-11T01:57:51.998Z,3.60
2022-10-11T02:00:21.942Z,3.65
2022-10-11T02:03:19.751Z,4.00
2022-10-11T02:06:10.842Z,3.63
2022-10-11T02:09:12.851Z,3.90
2022-10-11T02:11:39.751Z,3.88
2022-10-11T02:14:23.011Z,4.07
2022-10-11T02:16:58.156Z,4.78
2022-10-11T02:22:03.636Z,4.20
2022-10-11T02:24:34.982Z,4.25
2022-10-11T02:27:04.062Z,4.95
2022-10-11T02:29:40.904Z,5.00
2022-10-11T02:32:09.476Z,4.05
2022-10-11T02:34:51.018Z,5.07
2022-10-11T02:37:56.286Z,5.90
2022-10-11T02:40:31.330Z,5.05
2022-10-11T02:43:23.945Z,5.07
2022-10-11T02:45:57.931Z,5.40
2022-10-11T02:48:27.483Z,4.93
2022-10-11T02:50:56.116Z,4.88
2022-10-11T02:53:36.523Z,4.90
2022-10-11T02:56:03.717Z,4.28
2022-10-11T02:58:36.783Z,4.90
2022-10-11T03:01:07.429Z,4.88
2022-10-11T03:03:38.035Z,5.13
2022-10-11T03:06:05.367Z,5.35
2022-10-11T03:08:32.408Z,5.07
2022-10-11T03:10:59.292Z,5.38
2022-10-11T03:13:26.409Z,4.82
2022-10-11T03:16:02.844Z,5.97
2022-10-11T03:18:30.792Z,4.43
2022-10-11T03:20:57.588Z,4.53
2022-10-11T03:23:24.332Z,5.45
2022-10-11T03:25:52.198Z,5.10
2022-10-11T03:28:19.802Z,4.70
2022-10-11T03:30:51.006Z,4.30
2022-10-11T03:33:56.789Z,4.95
2022-10-11T03:36:23.596Z,4.97
2022-10-11T03:38:50.334Z,5.00
2022-10-11T03:41:17.189Z,4.30
2022-10-11T03:43:44.569Z,5.05
2022-10-11T03:46:11.434Z,4.63
2022-10-11T03:48:39.039Z,4.60
2022-10-11T03:51:05.986Z,4.70
2022-10-11T03:53:32.818Z,5.32
2022-10-11T03:56:02.366Z,5.32
2022-10-11T03:58:31.787Z,5.55
2022-10-11T04:00:59.067Z,5.85
2022-10-11T04:03:31.418Z,4.55
2022-10-11T04:05:58.219Z,6.25
2022-10-11T04:08:30.745Z,6.20
2022-10-11T04:10:57.502Z,6.72
2022-10-11T04:13:24.565Z,6.85
2022-10-11T04:15:51.368Z,6.35
2022-10-11T04:18:18.217Z,7.07
2022-10-11T04:20:45.128Z,6.88
2022-10-11T04:23:11.994Z,5.93
2022-10-11T04:25:39.644Z,6.43
2022-10-11T04:28:09.783Z,6.32
2022-10-11T04:30:37.049Z,6.63
2022-10-11T04:33:04.213Z,7.13
2022-10-11T04:35:48.851Z,6.68
2022-10-11T04:38:16.675Z,7.57
2022-10-11T04:40:43.394Z,6.47
2022-10-11T04:43:10.187Z,6.63
2022-10-11T04:45:37.456Z,6.07
2022-10-11T04:48:05.806Z,6.00
2022-10-11T04:50:32.555Z,5.88
2022-10-11T04:52:59.604Z,5.55
2022-10-11T04:55:26.392Z,6.03
2022-10-11T04:57:53.143Z,7.00
2022-10-11T05:00:22.285Z,6.70
2022-10-11T05:02:49.346Z,6.38
2022-10-11T05:05:17.695Z,7.15
2022-10-11T05:07:44.701Z,7.05
2022-10-11T05:10:11.611Z,6.38
2022-10-11T05:12:38.566Z,7.25
2022-10-11T05:15:06.490Z,7.13
2022-10-11T05:17:33.435Z,7.43
2022-10-11T05:20:00.304Z,6.82
2022-10-11T05:22:27.667Z,6.65
2022-10-11T05:24:54.836Z,8.25
2022-10-11T05:27:22.013Z,6.38
2022-10-11T05:29:48.905Z,7.28
2022-10-11T05:32:15.843Z,7.35
2022-10-11T05:34:43.056Z,7.05
2022-10-11T05:37:10.246Z,7.57
2022-10-11T05:39:37.444Z,6.82
2022-10-11T05:42:08.902Z,7.20
2022-10-11T05:44:36.765Z,6.80
2022-10-11T05:47:03.735Z,6.65
2022-10-11T05:49:30.855Z,6.40
2022-10-11T05:51:57.862Z,6.55
2022-10-11T05:54:24.947Z,7.32
2022-10-11T05:56:51.986Z,7.72
2022-10-11T05:59:19.068Z,7.45
2022-10-11T06:01:46.087Z,7.65
2022-10-11T06:04:13.247Z,7.53
2022-10-11T06:06:40.179Z,7.32
2022-10-11T06:09:07.238Z,7.88
2022-10-11T06:11:35.020Z,7.38
2022-10-11T06:14:04.455Z,7.55
2022-10-11T06:16:31.585Z,6.90
2022-10-11T06:18:59.699Z,7.90
2022-10-11T06:21:26.868Z,8.13
2022-10-11T06:23:59.978Z,9.25
2022-10-11T06:26:29.051Z,8.25
2022-10-11T06:28:56.516Z,8.95
2022-10-11T06:31:23.795Z,10.02
2022-10-11T06:33:51.007Z,8.98
2022-10-11T06:36:18.351Z,8.80
2022-10-11T06:38:45.632Z,9.38
2022-10-11T06:41:20.535Z,11.05
2022-10-11T06:43:49.521Z,11.00
2022-10-11T06:46:17.766Z,10.40
2022-10-11T06:48:47.894Z,10.60
2022-10-11T06:51:24.918Z,10.65
2022-10-11T06:53:55.505Z,9.75
2022-10-11T06:56:22.687Z,9.32
2022-10-11T06:58:51.528Z,10.07
2022-10-11T07:01:20.222Z,8.90
2022-10-11T07:03:48.464Z,8.15
2022-10-11T07:06:19.893Z,8.48
2022-10-11T07:08:47.615Z,7.18
2022-10-11T07:11:17.668Z,7.68
2022-10-11T07:13:53.724Z,7.35
2022-10-11T07:16:21.629Z,6.75
2022-10-11T07:18:57.250Z,6.95
2022-10-11T07:21:28.960Z,6.03
2022-10-11T07:23:56.432Z,5.55
2022-10-11T07:26:23.906Z,5.30
2022-10-11T07:28:51.803Z,5.05
2022-10-11T07:31:22.115Z,5.05
2022-10-11T07:33:49.689Z,4.90
2022-10-11T07:36:17.266Z,5.25
2022-10-11T07:38:46.433Z,5.47
2022-10-11T07:41:14.296Z,4.65
2022-10-11T07:43:43.670Z,4.82
2022-10-11T07:46:11.731Z,4.30
2022-10-11T07:48:41.423Z,4.13
2022-10-11T07:51:11.954Z,3.92
2022-10-11T07:53:41.614Z,3.55
2022-10-11T07:56:10.659Z,4.50
2022-10-11T07:58:37.759Z,4.13
2022-10-11T08:01:05.652Z,3.50
2022-10-11T08:03:33.188Z,3.88
2022-10-11T08:06:05.985Z,4.35
2022-10-11T08:08:33.143Z,4.20
2022-10-11T08:11:00.648Z,3.63
2022-10-11T08:13:28.074Z,3.95
2022-10-11T08:15:55.234Z,3.22
2022-10-11T08:18:22.748Z,3.58
2022-10-11T08:20:50.277Z,3.78
2022-10-11T08:23:18.668Z,3.80
2022-10-11T08:25:47.717Z,3.55
2022-10-11T08:28:17.967Z,3.88
2022-10-11T08:30:54.364Z,3.25
2022-10-11T08:33:24.873Z,3.88
2022-10-11T08:35:53.496Z,3.58
2022-10-11T08:38:21.326Z,3.42
2022-10-11T08:40:57.148Z,3.38
2022-10-11T08:43:39.762Z,3.35
2022-10-11T08:46:09.214Z,3.13
2022-10-11T08:48:43.873Z,2.95
2022-10-11T08:51:19.934Z,2.50
2022-10-11T08:54:07.531Z,2.90
2022-10-11T08:56:40.278Z,3.15
2022-10-11T08:59:13.622Z,3.15
2022-10-11T09:02:55.746Z,2.80
2022-10-11T09:05:23.261Z,2.58
2022-10-11T09:08:26.341Z,2.75
2022-10-11T09:11:14.935Z,2.50
2022-10-11T09:14:05.934Z,3.22
2022-10-11T09:16:45.222Z,2.38
2022-10-11T09:19:31.219Z,2.88
2022-10-11T09:22:10.760Z,2.60
2022-10-11T09:24:57.009Z,3.20
2022-10-11T09:28:01.729Z,2.88
2022-10-11T09:30:29.933Z,2.93
2022-10-11T09:33:09.389Z,2.55
2022-10-11T09:35:46.395Z,2.45
2022-10-11T09:38:35.623Z,2.25
2022-10-11T09:41:10.008Z,2.40
2022-10-11T09:43:37.598Z,2.80
2022-10-11T09:46:36.973Z,2.70
2022-10-11T09:49:13.948Z,2.65
2022-10-11T09:51:44.970Z,2.22
2022-10-11T09:54:13.544Z,3.15
2022-10-11T09:56:45.598Z,2.53
2022-10-11T09:59:28.814Z,2.78
2022-10-11T10:02:14.642Z,2.08
2022-10-11T10:05:04.304Z,2.53
2022-10-11T10:07:34.747Z,2.33
2022-10-11T10:10:36.090Z,3.03
2022-10-11T10:13:06.580Z,3.05
2022-10-11T10:15:36.268Z,2.97
2022-10-11T10:18:06.202Z,3.50
2022-10-11T10:20:35.557Z,2.50
2022-10-11T10:23:09.551Z,3.10
2022-10-11T10:25:43.366Z,1.95
2022-10-11T10:28:21.254Z,2.75
2022-10-11T10:30:54.456Z,2.55
2022-10-11T10:33:29.874Z,2.40
2022-10-11T10:36:00.647Z,2.60
2022-10-11T10:38:43.195Z,2.63
2022-10-11T10:41:12.887Z,3.28
2022-10-11T10:43:42.367Z,3.55
2022-10-11T10:46:33.744Z,4.10
2022-10-11T10:49:41.507Z,4.15
2022-10-11T10:52:18.523Z,4.85
2022-10-11T10:55:28.281Z,4.25
2022-10-11T10:58:01.332Z,3.67
2022-10-11T11:00:35.099Z,2.58
2022-10-11T11:03:06.155Z,3.28
2022-10-11T11:06:10.353Z,3.20
2022-10-11T11:08:59.308Z,2.35
2022-10-11T11:11:44.163Z,3.85
2022-10-11T11:14:14.059Z,1.75
2022-10-11T11:17:25.099Z,2.30
2022-10-11T11:20:11.017Z,2.33
2022-10-11T11:23:30.787Z,2.75
2022-10-11T11:26:23.468Z,2.42
2022-10-11T11:28:56.092Z,2.50
2022-10-11T11:32:00.392Z,2.45
2022-10-11T11:34:33.385Z,2.30
2022-10-11T11:37:33.085Z,2.22
2022-10-11T11:40:19.914Z,2.47
2022-10-11T11:42:50.619Z,2.40
2022-10-11T11:45:33.536Z,2.35
2022-10-11T11:48:08.670Z,2.88
2022-10-11T11:53:14.945Z,3.10
2022-10-11T11:55:55.168Z,2.50
2022-10-11T11:58:55.504Z,2.50
2022-10-11T12:01:31.536Z,2.38
2022-10-11T12:04:25.525Z,3.45
2022-10-11T12:07:17.336Z,2.35
2022-10-11T12:09:52.142Z,2.72
2022-10-11T12:12:29.779Z,3.15
2022-10-11T12:15:08.715Z,3.30
2022-10-11T12:17:55.962Z,2.58
2022-10-11T12:20:33.836Z,2.85
2022-10-11T12:23:31.217Z,2.70
2022-10-11T12:26:17.050Z,2.42
2022-10-11T12:28:44.187Z,2.40
2022-10-11T12:31:24.945Z,2.65
2022-10-11T12:34:03.308Z,2.90
2022-10-11T12:36:43.320Z,2.60
2022-10-11T12:39:19.585Z,2.40
2022-10-11T12:41:49.291Z,2.00
2022-10-11T12:44:19.030Z,2.90
2022-10-11T12:46:54.463Z,2.30
2022-10-11T12:49:24.524Z,3.17
2022-10-11T12:52:02.328Z,2.45
2022-10-11T12:54:47.771Z,2.72
2022-10-11T12:57:46.452Z,2.10
2022-10-11T13:00:45.628Z,2.42
2022-10-11T13:03:46.616Z,2.70
2022-10-11T13:06:26.598Z,2.60
2022-10-11T13:09:45.287Z,2.78
2022-10-11T13:12:19.597Z,2.78
2022-10-11T13:15:03.944Z,2.45
2022-10-11T13:17:38.155Z,2.53
2022-10-11T13:20:20.586Z,2.50
2022-10-11T13:22:51.311Z,2.47
2022-10-11T13:25:22.558Z,3.22
2022-10-11T13:27:51.624Z,2.40
2022-10-11T13:30:24.033Z,2.53
2022-10-11T13:32:52.668Z,2.50
2022-10-11T13:35:37.427Z,2.83
2022-10-11T13:38:14.998Z,2.40
2022-10-11T13:40:46.282Z,1.77
2022-10-11T13:45:47.404Z,2.13
2022-10-11T13:48:15.913Z,2.28
2022-10-11T13:50:46.604Z,2.42
2022-10-11T13:53:13.607Z,2.38
2022-10-11T13:56:04.931Z,2.65
2022-10-11T13:58:46.688Z,2.60
2022-10-11T14:01:39.211Z,2.53
2022-10-11T14:04:17.403Z,2.47
2022-10-11T14:06:53.571Z,2.22
2022-10-11T14:09:29.395Z,2.50
2022-10-11T14:12:16.907Z,2.30
2022-10-11T14:14:44.035Z,2.13
2022-10-11T14:17:17.530Z,2.67
2022-10-11T14:19:46.963Z,2.60
2022-10-11T14:22:16.225Z,2.28
2022-10-11T14:24:46.587Z,2.25
2022-10-11T14:27:23.465Z,2.17
2022-10-11T14:30:19.827Z,2.45
2022-10-11T14:32:37.966Z,3.03
2022-10-11T14:35:05.297Z,2.38
2022-10-11T14:37:32.364Z,2.58
2022-10-11T14:39:59.159Z,2.92
2022-10-11T14:42:26.017Z,2.20
2022-10-11T14:44:52.755Z,2.67
2022-10-11T14:47:19.743Z,2.40
2022-10-11T14:49:46.542Z,2.17
2022-10-11T14:52:14.082Z,2.17
2022-10-11T14:54:41.632Z,2.65
2022-10-11T14:57:11.928Z,2.20
2022-10-11T14:59:39.037Z,2.38
2022-10-11T15:02:08.573Z,2.55
2022-10-11T15:04:35.783Z,2.10
2022-10-11T15:07:03.827Z,2.40
2022-10-11T15:09:30.974Z,2.33
2022-10-11T15:11:58.252Z,2.28
2022-10-11T15:14:25.275Z,2.25
2022-10-11T15:16:52.175Z,2.00
2022-10-11T15:19:22.368Z,2.22
2022-10-11T15:21:49.784Z,2.20
2022-10-11T15:24:20.049Z,2.53
2022-10-11T15:26:48.501Z,2.85
2022-10-11T15:29:18.073Z,2.10
2022-10-11T15:31:45.968Z,2.30
2022-10-11T15:34:12.926Z,2.20
2022-10-11T15:36:40.067Z,2.80
2022-10-11T15:39:27.183Z,2.30
2022-10-11T15:41:54.329Z,3.55
2022-10-11T15:44:21.351Z,3.65
2022-10-11T15:46:48.225Z,2.70
2022-10-11T15:49:15.328Z,2.72
2022-10-11T15:51:42.128Z,2.25
2022-10-11T15:54:09.719Z,2.38
2022-10-11T15:56:36.557Z,2.42
2022-10-11T15:59:03.511Z,3.03
2022-10-11T16:01:30.555Z,2.95
2022-10-11T16:03:57.483Z,2.80
2022-10-11T16:06:24.390Z,2.45
2022-10-11T16:08:51.225Z,2.95
2022-10-11T16:11:18.634Z,2.63
2022-10-11T16:13:45.610Z,2.63
2022-10-11T16:16:13.026Z,2.95
2022-10-11T16:18:40.213Z,2.33
2022-10-11T16:21:10.617Z,2.58
2022-10-11T16:23:38.401Z,2.63
2022-10-11T16:26:09.410Z,2.35
2022-10-11T16:28:37.974Z,2.30
2022-10-11T16:31:11.010Z,2.75
2022-10-11T16:33:46.267Z,3.20
2022-10-11T16:36:40.650Z,2.50
2022-10-11T16:39:17.118Z,2.50
2022-10-11T16:41:45.038Z,2.38
2022-10-11T16:44:17.623Z,2.40
2022-10-11T16:46:48.507Z,3.05
2022-10-11T16:49:16.936Z,2.38
2022-10-11T16:51:43.935Z,2.92
2022-10-11T16:54:10.835Z,2.65
2022-10-11T16:56:40.029Z,2.90
2022-10-11T16:59:08.016Z,2.70
2022-10-11T17:01:34.865Z,3.30
2022-10-11T17:04:01.822Z,3.35
2022-10-11T17:06:29.499Z,3.17
2022-10-11T17:08:56.588Z,3.40
2022-10-11T17:11:23.663Z,5.95
2022-10-11T17:13:53.557Z,8.60
2022-10-11T17:16:21.738Z,7.85
2022-10-11T17:18:49.334Z,6.32
2022-10-11T17:21:18.514Z,6.90
2022-10-11T17:23:45.875Z,7.22
2022-10-11T17:26:18.799Z,7.13
2022-10-11T17:28:46.434Z,8.23
2022-10-11T17:31:13.619Z,7.53
2022-10-11T17:33:40.844Z,8.23
2022-10-11T17:36:34.977Z,9.05
2022-10-11T17:39:09.025Z,8.07
2022-10-11T17:41:36.838Z,7.40
2022-10-11T17:44:04.522Z,8.15
2022-10-11T17:46:32.621Z,8.02
2022-10-11T17:49:01.312Z,8.95
2022-10-11T17:51:28.530Z,9.77
2022-10-11T17:53:55.739Z,10.30
2022-10-11T17:56:31.309Z,9.50
2022-10-11T17:59:00.951Z,9.02
2022-10-11T18:01:29.642Z,9.88
2022-10-11T18:04:01.799Z,9.50
2022-10-11T18:06:32.074Z,9.10
2022-10-11T18:09:03.513Z,8.70
2022-10-11T18:11:31.258Z,8.20
2022-10-11T18:13:59.499Z,8.82
2022-10-11T18:16:28.181Z,9.05
2022-10-11T18:18:57.582Z,12.13
2022-10-11T18:21:31.179Z,13.63
2022-10-11T18:24:07.973Z,12.48
2022-10-11T18:26:35.107Z,9.07
2022-10-11T18:29:02.252Z,11.77
2022-10-11T18:31:31.311Z,11.63
2022-10-11T18:33:59.507Z,11.65
2022-10-11T18:36:30.401Z,12.23
2022-10-11T18:39:04.720Z,13.30
2022-10-11T18:41:33.280Z,11.57
2022-10-11T18:44:03.217Z,12.73
2022-10-11T18:46:31.128Z,12.80
2022-10-11T18:49:01.578Z,13.45
2022-10-11T18:51:34.610Z,15.50
2022-10-11T18:54:02.188Z,13.57
2022-10-11T18:56:30.576Z,12.95
2022-10-11T18:58:59.536Z,12.95
2022-10-11T19:01:29.727Z,12.30
2022-10-11T19:03:59.251Z,12.80
2022-10-11T19:06:29.344Z,13.07
2022-10-11T19:09:04.607Z,12.15
2022-10-11T19:11:32.434Z,12.18
2022-10-11T19:14:08.135Z,12.60
2022-10-11T19:16:38.365Z,11.55
2022-10-11T19:19:06.691Z,11.70
2022-10-11T19:21:34.232Z,11.40
2022-10-11T19:24:01.345Z,10.98
2022-10-11T19:26:33.918Z,11.40
2022-10-11T19:29:15.584Z,10.60
2022-10-11T19:31:45.330Z,9.85
2022-10-11T19:34:12.761Z,9.93
2022-10-11T19:36:42.892Z,9.05
2022-10-11T19:39:14.828Z,9.70
2022-10-11T19:41:42.699Z,8.80
2022-10-11T19:44:10.385Z,8.50
2022-10-11T19:46:50.908Z,8.70
2022-10-11T19:49:20.472Z,8.05
2022-10-11T19:51:47.652Z,8.48
2022-10-11T19:54:15.996Z,8.18
2022-10-11T19:56:44.018Z,7.63
2022-10-11T19:59:12.895Z,7.72
2022-10-11T20:01:41.312Z,8.25
2022-10-11T20:04:22.649Z,7.95
2022-10-11T20:06:54.838Z,8.65
2022-10-11T20:09:29.495Z,9.30
2022-10-11T20:11:57.145Z,7.82
2022-10-11T20:14:25.301Z,9.35
2022-10-11T20:16:52.454Z,9.82
2022-10-11T20:19:20.064Z,8.63
2022-10-11T20:21:48.095Z,9.18
2022-10-11T20:24:15.147Z,9.45
2022-10-11T20:26:42.078Z,9.80
2022-10-11T20:29:09.260Z,9.55
2022-10-11T20:31:41.839Z,9.20
2022-10-11T20:34:09.754Z,10.18
2022-10-11T20:36:37.201Z,9.40
2022-10-11T20:39:06.447Z,9.73
2022-10-11T20:41:37.231Z,9.63
2022-10-11T20:44:04.981Z,9.57
2022-10-11T20:46:34.218Z,9.27
2022-10-11T20:49:03.554Z,9.75
2022-10-11T20:51:32.491Z,9.48
2022-10-11T20:54:00.643Z,9.27
2022-10-11T20:56:28.085Z,8.13
2022-10-11T20:58:56.555Z,8.65
2022-10-11T21:01:26.570Z,8.25
2022-10-11T21:03:54.279Z,8.07
2022-10-11T21:06:21.303Z,7.88
2022-10-11T21:08:48.322Z,7.18
2022-10-11T21:11:15.340Z,8.95
2022-10-11T21:13:43.103Z,7.28
2022-10-11T21:16:15.293Z,6.95
2022-10-11T21:18:42.714Z,7.75
2022-10-11T21:21:12.462Z,6.60
2022-10-11T21:23:40.135Z,6.43
2022-10-11T21:26:09.990Z,7.20
2022-10-11T21:28:37.771Z,7.15
2022-10-11T21:31:10.589Z,5.93
2022-10-11T21:33:38.399Z,6.22
2022-10-11T21:36:10.659Z,6.80
2022-10-11T21:38:38.416Z,7.15
2022-10-11T21:41:07.019Z,7.40
2022-10-11T21:43:35.892Z,7.00
2022-10-11T21:47:01.227Z,6.53
2022-10-11T21:49:35.142Z,6.47
2022-10-11T21:52:04.131Z,6.70
2022-10-11T21:54:31.228Z,6.55
2022-10-11T21:56:58.657Z,6.18
2022-10-11T21:59:25.763Z,6.80
2022-10-11T22:01:53.727Z,6.38
2022-10-11T22:04:23.034Z,5.43
2022-10-11T22:06:49.866Z,5.93
2022-10-11T22:09:16.731Z,5.57
2022-10-11T22:11:43.666Z,5.72
2022-10-11T22:14:11.507Z,6.60
2022-10-11T22:16:38.447Z,5.35
2022-10-11T22:19:05.650Z,4.78
2022-10-11T22:21:32.532Z,5.95
2022-10-11T22:24:00.029Z,5.38
2022-10-11T22:26:32.735Z,5.35
2022-10-11T22:29:00.685Z,5.00
2022-10-11T22:31:28.511Z,4.82
2022-10-11T22:33:59.881Z,5.65
2022-10-11T22:36:32.163Z,4.63
2022-10-11T22:38:59.482Z,4.53
2022-10-11T22:41:26.389Z,4.80
2022-10-11T22:43:53.420Z,4.22
2022-10-11T22:46:20.460Z,4.38
2022-10-11T22:48:47.370Z,5.10
2022-10-11T22:51:14.669Z,4.18
2022-10-11T22:53:44.210Z,5.20
2022-10-11T22:56:11.944Z,4.90
2022-10-11T22:58:39.056Z,4.70
2022-10-11T23:01:10.095Z,4.25
2022-10-11T23:03:37.413Z,4.90
2022-10-11T23:06:04.697Z,4.30
2022-10-11T23:08:31.968Z,5.15
2022-10-11T23:11:03.694Z,5.03
2022-10-11T23:13:30.512Z,4.70
2022-10-11T23:15:57.403Z,4.68
2022-10-11T23:18:24.334Z,5.80
2022-10-11T23:20:51.277Z,6.15
2022-10-11T23:23:18.185Z,5.78
2022-10-11T23:25:45.129Z,5.47
2022-10-11T23:30:52.690Z,5.43
2022-10-11T23:33:19.545Z,5.10
2022-10-11T23:35:46.419Z,6.18
2022-10-11T23:38:13.170Z,5.65
2022-10-11T23:40:39.921Z,5.10
2022-10-11T23:43:06.894Z,5.70
2022-10-11T23:45:33.795Z,5.88
2022-10-11T23:48:00.658Z,5.75
2022-10-11T23:50:27.492Z,5.53
2022-10-11T23:52:54.351Z,5.88
2022-10-11T23:55:21.376Z,5.68
2022-10-11T23:57:48.481Z,5.03
